Time;durP1;ratioP1;P1;durP2;ratioP2;P2;SDS_P1;SDS_P2;PMS_P1;PMS_P2;Temp;Humidity;BMP_temperature;BMP_pressure;BME280_temperature;BME280_humidity;BME280_pressure;Samples;Min_cycle;Max_cycle;Signal;HPM_P1;HPM_P2
2022/12/16 00:01:53;;;;;;;33.30;18.73;;;;;;;;;;5028554;28;20028;-75
2022/12/16 00:04:39;;;;;;;33.35;18.65;;;;;;;;;;5032196;28;20641;-80
2022/12/16 00:07:24;;;;;;;34.22;19.08;;;;;;;;;;5032753;28;20356;-81
2022/12/16 00:10:09;;;;;;;31.88;18.50;;;;;;;;;;5040265;28;20167;-79
2022/12/16 00:12:54;;;;;;;34.10;18.63;;;;;;;;;;5035855;28;20032;-79
2022/12/16 00:15:39;;;;;;;39.90;21.70;;;;;;;;;;5048189;28;20489;-79
2022/12/16 00:18:25;;;;;;;34.65;18.50;;;;;;;;;;5033743;28;20028;-79
2022/12/16 00:21:10;;;;;;;40.88;20.40;;;;;;;;;;5049686;28;20024;-74
2022/12/16 00:23:56;;;;;;;34.75;20.73;;;;;;;;;;5031216;28;20033;-83
2022/12/16 00:26:41;;;;;;;33.35;19.50;;;;;;;;;;5040508;28;20894;-82
2022/12/16 00:29:26;;;;;;;40.17;20.73;;;;;;;;;;5035531;28;20032;-80
2022/12/16 00:32:11;;;;;;;36.58;19.92;;;;;;;;;;5029311;28;20170;-81
2022/12/16 00:34:57;;;;;;;35.15;19.95;;;;;;;;;;5023632;28;20476;-84
2022/12/16 00:37:42;;;;;;;36.20;21.00;;;;;;;;;;5046794;28;20039;-81
2022/12/16 00:40:27;;;;;;;33.10;19.73;;;;;;;;;;5036193;28;20028;-75
2022/12/16 00:43:12;;;;;;;38.22;20.20;;;;;;;;;;5026693;28;20032;-74
2022/12/16 00:45:58;;;;;;;36.47;18.75;;;;;;;;;;5029098;28;20479;-77
2022/12/16 00:48:43;;;;;;;31.35;18.52;;;;;;;;;;5032540;28;20032;-74
2022/12/16 00:51:28;;;;;;;36.45;19.35;;;;;;;;;;5032617;28;20035;-76
2022/12/16 00:54:13;;;;;;;31.02;19.45;;;;;;;;;;5024437;28;20360;-77
2022/12/16 00:56:59;;;;;;;37.05;20.92;;;;;;;;;;5031637;28;20054;-75
2022/12/16 00:59:44;;;;;;;38.20;18.92;;;;;;;;;;5027593;28;20048;-79
2022/12/16 01:02:30;;;;;;;37.47;18.88;;;;;;;;;;5026275;28;20033;-74
2022/12/16 01:05:16;;;;;;;36.92;19.35;;;;;;;;;;5031487;28;20074;-77
2022/12/16 01:08:01;;;;;;;37.50;20.83;;;;;;;;;;5049732;28;20028;-73
2022/12/16 01:10:53;;;;;;;34.67;18.33;;;;;;;;;;5026834;28;20036;-73
2022/12/16 01:13:38;;;;;;;39.75;21.33;;;;;;;;;;5043801;28;20055;-73
2022/12/16 01:16:24;;;;;;;33.28;19.73;;;;;;;;;;5044380;28;20029;-76
2022/12/16 01:19:09;;;;;;;38.15;20.50;;;;;;;;;;5030525;28;20031;-74
2022/12/16 01:21:55;;;;;;;36.72;19.63;;;;;;;;;;5023041;28;20103;-72
2022/12/16 01:24:40;;;;;;;35.83;20.20;;;;;;;;;;5045121;28;20457;-75
2022/12/16 01:27:26;;;;;;;34.88;20.85;;;;;;;;;;5035600;28;20040;-76
2022/12/16 01:30:11;;;;;;;36.42;19.25;;;;;;;;;;5037447;28;20041;-73
2022/12/16 01:32:56;;;;;;;31.55;19.08;;;;;;;;;;5025305;28;20021;-75
2022/12/16 01:35:42;;;;;;;34.45;20.30;;;;;;;;;;5028433;28;20458;-79
2022/12/16 01:38:27;;;;;;;35.38;20.67;;;;;;;;;;5030021;28;20025;-83
2022/12/16 01:41:14;;;;;;;36.65;20.50;;;;;;;;;;5027135;28;20036;-82
2022/12/16 01:44:31;;;;;;;31.50;18.60;;;;;;;;;;5021631;28;20364;-83
2022/12/16 01:47:25;;;;;;;34.30;19.35;;;;;;;;;;5003640;28;20455;-83
2022/12/16 01:50:12;;;;;;;37.10;21.25;;;;;;;;;;5043362;28;20032;-83
2022/12/16 01:53:00;;;;;;;34.58;21.23;;;;;;;;;;5037340;28;20075;-78
2022/12/16 01:55:47;;;;;;;38.20;19.50;;;;;;;;;;5023504;28;20066;-75
2022/12/16 01:58:34;;;;;;;38.17;21.02;;;;;;;;;;5024178;28;20032;-76
2022/12/16 02:01:19;;;;;;;37.55;20.00;;;;;;;;;;5025897;28;20028;-74
2022/12/16 02:04:04;;;;;;;32.80;18.45;;;;;;;;;;5050103;28;20043;-75
2022/12/16 02:06:49;;;;;;;36.53;19.10;;;;;;;;;;5024543;28;20018;-74
2022/12/16 02:09:35;;;;;;;33.55;18.27;;;;;;;;;;5036144;28;20032;-75
2022/12/16 02:12:39;;;;;;;33.03;17.88;;;;;;;;;;5042724;28;20032;-77
2022/12/16 02:15:27;;;;;;;35.70;19.55;;;;;;;;;;5026233;28;20379;-75
2022/12/16 02:18:20;;;;;;;37.72;20.33;;;;;;;;;;5031783;28;20486;-75
2022/12/16 02:21:14;;;;;;;32.63;17.85;;;;;;;;;;5058080;28;20534;-76
2022/12/16 02:24:18;;;;;;;34.33;17.73;;;;;;;;;;5044858;28;20111;-77
2022/12/16 02:27:18;;;;;;;37.67;21.50;;;;;;;;;;5031856;28;20028;-75
2022/12/16 02:30:04;;;;;;;35.33;20.20;;;;;;;;;;5061586;28;20431;-75
2022/12/16 02:32:52;;;;;;;30.23;17.73;;;;;;;;;;5035717;28;20021;-75
2022/12/16 02:35:40;;;;;;;34.50;18.27;;;;;;;;;;5023603;28;20029;-76
2022/12/16 02:38:25;;;;;;;35.05;17.67;;;;;;;;;;5024263;28;20417;-76
2022/12/16 02:41:16;;;;;;;37.40;20.45;;;;;;;;;;5026609;28;20767;-75
2022/12/16 02:44:05;;;;;;;39.35;19.92;;;;;;;;;;5022911;28;20045;-76
2022/12/16 02:46:54;;;;;;;31.33;18.42;;;;;;;;;;5025198;28;20033;-75
2022/12/16 02:49:45;;;;;;;39.15;19.05;;;;;;;;;;5045270;28;20087;-74
2022/12/16 02:52:32;;;;;;;34.63;18.70;;;;;;;;;;5044346;28;20252;-76
2022/12/16 02:55:17;;;;;;;29.30;17.60;;;;;;;;;;5027579;28;20029;-78
2022/12/16 02:58:08;;;;;;;33.50;18.90;;;;;;;;;;5035840;28;20044;-76
2022/12/16 03:01:05;;;;;;;32.92;17.90;;;;;;;;;;5044271;28;20030;-75
2022/12/16 03:03:59;;;;;;;30.95;17.05;;;;;;;;;;5032136;28;20039;-74
2022/12/16 03:06:48;;;;;;;28.63;18.38;;;;;;;;;;5024518;28;20029;-74
2022/12/16 03:09:35;;;;;;;32.58;17.65;;;;;;;;;;5033277;28;20142;-81
2022/12/16 03:12:21;;;;;;;33.33;17.85;;;;;;;;;;5041067;28;20033;-81
2022/12/16 03:15:07;;;;;;;34.28;18.63;;;;;;;;;;5042495;28;20533;-81
2022/12/16 03:17:53;;;;;;;31.98;17.27;;;;;;;;;;5023523;28;20040;-80
2022/12/16 03:20:41;;;;;;;32.45;17.15;;;;;;;;;;5044337;28;20036;-79
2022/12/16 03:23:38;;;;;;;32.00;18.02;;;;;;;;;;5040222;28;20036;-78
2022/12/16 03:26:25;;;;;;;32.35;18.90;;;;;;;;;;5043971;28;20193;-76
2022/12/16 03:29:18;;;;;;;31.35;18.52;;;;;;;;;;5045732;28;20103;-76
2022/12/16 03:32:06;;;;;;;34.58;18.10;;;;;;;;;;5026110;28;20042;-77
2022/12/16 03:34:59;;;;;;;30.13;17.48;;;;;;;;;;5033149;28;20029;-78
2022/12/16 03:37:46;;;;;;;32.65;19.40;;;;;;;;;;5047748;28;20598;-77
2022/12/16 03:40:32;;;;;;;31.00;17.00;;;;;;;;;;5032191;28;20103;-76
2022/12/16 03:43:18;;;;;;;31.23;18.27;;;;;;;;;;5045734;28;20412;-75
2022/12/16 03:46:05;;;;;;;32.45;17.85;;;;;;;;;;5034862;28;20405;-75
2022/12/16 03:48:51;;;;;;;32.08;17.30;;;;;;;;;;5034078;28;20017;-78
2022/12/16 03:51:36;;;;;;;32.50;17.55;;;;;;;;;;5049023;28;20107;-76
2022/12/16 03:54:22;;;;;;;32.92;17.73;;;;;;;;;;5028911;28;20039;-77
2022/12/16 03:57:07;;;;;;;30.95;18.10;;;;;;;;;;5037696;28;20665;-76
2022/12/16 03:59:52;;;;;;;32.67;18.58;;;;;;;;;;5043588;28;20028;-76
2022/12/16 04:02:38;;;;;;;30.33;17.15;;;;;;;;;;5036279;28;20451;-78
2022/12/16 04:05:23;;;;;;;29.90;16.77;;;;;;;;;;5046294;28;20040;-72
2022/12/16 04:08:08;;;;;;;31.15;17.90;;;;;;;;;;5044416;28;20417;-72
2022/12/16 04:26:21;;;;;;;27.75;16.23;;;;;;;;;;5047586;28;20040;-79
2022/12/16 04:29:06;;;;;;;25.67;15.38;;;;;;;;;;5045858;28;20071;-78
2022/12/16 04:31:51;;;;;;;27.50;14.05;;;;;;;;;;5028642;28;20039;-77
2022/12/16 04:34:36;;;;;;;28.20;13.38;;;;;;;;;;5041037;28;20033;-79
